Time;durP1;ratioP1;P1;durP2;ratioP2;P2;SDS_P1;SDS_P2;PMS_P1;PMS_P2;Temp;Humidity;BMP_temperature;BMP_pressure;BME280_temperature;BME280_humidity;BME280_pressure;Samples;Min_cycle;Max_cycle;Signal;HPM_P1;HPM_P2
2023/04/02 00:01:42;;;;;;;6.73;6.13;;;12.10;99.90;;;;;;5053462;28;20461;-84
2023/04/02 00:04:40;;;;;;;6.60;5.53;;;12.00;99.90;;;;;;5035199;28;20461;-83
2023/04/02 00:07:36;;;;;;;6.60;5.40;;;12.00;99.90;;;;;;5039206;28;20451;-83
2023/04/02 00:10:41;;;;;;;7.63;6.90;;;11.90;99.90;;;;;;5046383;28;20481;-83
2023/04/02 00:13:49;;;;;;;6.60;5.90;;;12.00;99.90;;;;;;5031189;28;20625;-83
2023/04/02 00:16:38;;;;;;;6.73;5.80;;;12.00;99.90;;;;;;5029514;28;20457;-82
2023/04/02 00:19:27;;;;;;;8.43;6.63;;;12.00;99.90;;;;;;5032078;28;20504;-83
2023/04/02 00:22:03;;;;;;;7.07;5.50;;;11.90;99.90;;;;;;5033793;28;20568;-83
2023/04/02 00:24:57;;;;;;;8.17;6.30;;;11.80;99.90;;;;;;5046316;28;20449;-83
2023/04/02 00:27:32;;;;;;;7.30;6.47;;;11.80;99.90;;;;;;5049367;28;20989;-83
2023/04/02 00:30:20;;;;;;;6.67;5.97;;;12.00;99.90;;;;;;5036990;28;20456;-84
2023/04/02 00:32:53;;;;;;;8.23;5.97;;;12.10;99.90;;;;;;5034648;28;20517;-83
2023/04/02 00:35:43;;;;;;;6.30;5.80;;;11.90;99.90;;;;;;5035251;28;20461;-83
2023/04/02 00:38:46;;;;;;;6.57;5.97;;;11.90;99.90;;;;;;5034477;28;20993;-84
2023/04/02 00:41:38;;;;;;;6.47;5.70;;;12.00;99.90;;;;;;5005911;28;20484;-82
2023/04/02 00:44:20;;;;;;;6.93;6.33;;;12.00;99.90;;;;;;5031128;28;20481;-83
2023/04/02 00:47:30;;;;;;;8.03;6.43;;;12.00;99.90;;;;;;5032609;28;20525;-83
2023/04/02 00:50:08;;;;;;;6.67;6.07;;;11.90;99.90;;;;;;5029504;28;20515;-84
2023/04/02 00:53:05;;;;;;;6.83;6.13;;;11.90;99.90;;;;;;5035331;28;20561;-84
2023/04/02 00:55:49;;;;;;;6.57;5.97;;;12.00;99.90;;;;;;5027367;28;20504;-83
2023/04/02 00:58:36;;;;;;;8.57;5.70;;;11.90;99.90;;;;;;5035795;28;20520;-84
2023/04/02 01:01:26;;;;;;;6.63;5.40;;;12.00;99.90;;;;;;5050599;28;20456;-83
2023/04/02 01:04:27;;;;;;;6.23;5.67;;;11.70;99.90;;;;;;5049202;28;20477;-84
2023/04/02 01:07:17;;;;;;;3.43;3.17;;;11.80;99.90;;;;;;5067225;28;20539;-84
2023/04/02 01:10:13;;;;;;;2.67;2.47;;;11.80;99.90;;;;;;5099007;22;20862;-81
2023/04/02 01:13:33;;;;;;;1.80;1.70;;;11.80;99.90;;;;;;5085506;28;20482;-84
2023/04/02 01:16:18;;;;;;;2.33;1.73;;;11.60;99.90;;;;;;5070475;28;20460;-84
2023/04/02 01:19:26;;;;;;;1.67;1.57;;;11.60;99.90;;;;;;5059017;28;20441;-83
2023/04/02 01:22:35;;;;;;;2.07;1.57;;;11.50;99.90;;;;;;5055192;28;20441;-84
2023/04/02 01:25:35;;;;;;;2.20;2.00;;;11.50;99.90;;;;;;5048552;28;20852;-83
2023/04/02 01:28:24;;;;;;;1.70;1.60;;;11.30;99.90;;;;;;5044634;28;20452;-83
2023/04/02 01:31:15;;;;;;;3.20;2.10;;;11.30;99.90;;;;;;5047693;28;20453;-82
2023/04/02 01:34:10;;;;;;;2.37;2.03;;;11.30;99.90;;;;;;5061097;28;20484;-81
2023/04/02 01:36:47;;;;;;;2.93;2.63;;;11.20;99.90;;;;;;5053042;28;20456;-83
2023/04/02 01:40:00;;;;;;;2.53;2.33;;;11.10;99.90;;;;;;5046326;28;20539;-80
2023/04/02 01:42:56;;;;;;;2.97;2.10;;;11.10;99.90;;;;;;5055189;28;20468;-82
2023/04/02 01:45:29;;;;;;;2.37;2.20;;;11.00;99.90;;;;;;5029253;28;21066;-83
2023/04/02 01:47:59;;;;;;;1.87;1.77;;;11.10;99.90;;;;;;5050962;28;20452;-81
2023/04/02 01:50:38;;;;;;;3.17;2.33;;;11.10;99.90;;;;;;5058590;28;20452;-83
2023/04/02 01:53:15;;;;;;;2.10;2.00;;;11.00;99.90;;;;;;5049198;28;20518;-83
2023/04/02 01:55:58;;;;;;;2.03;1.93;;;11.00;99.90;;;;;;5055767;28;20464;-83
2023/04/02 01:58:37;;;;;;;2.00;1.90;;;10.90;99.90;;;;;;5071164;28;20503;-83
2023/04/02 02:01:19;;;;;;;1.80;1.70;;;10.90;99.90;;;;;;5058151;28;20444;-83
2023/04/02 02:03:57;;;;;;;1.63;1.53;;;10.80;99.90;;;;;;5054303;28;20575;-83
2023/04/02 02:06:37;;;;;;;1.50;1.40;;;10.80;99.90;;;;;;5052756;28;20452;-83
2023/04/02 02:09:22;;;;;;;1.23;1.20;;;10.80;99.90;;;;;;5052822;28;20464;-83
2023/04/02 02:11:57;;;;;;;1.13;1.13;;;10.90;99.90;;;;;;5049069;28;20543;-83
2023/04/02 02:14:53;;;;;;;1.87;1.30;;;10.90;99.90;;;;;;5047729;28;20477;-83
2023/04/02 02:17:33;;;;;;;1.67;1.57;;;10.80;99.90;;;;;;5049442;28;20466;-82
2023/04/02 02:20:24;;;;;;;2.03;1.47;;;10.70;99.90;;;;;;5053285;28;20455;-82
2023/04/02 02:23:08;;;;;;;1.50;1.40;;;10.80;99.90;;;;;;5051068;28;20483;-80
2023/04/02 02:25:48;;;;;;;1.70;1.60;;;10.90;99.90;;;;;;5043300;28;20544;-83
2023/04/02 02:28:21;;;;;;;1.73;1.20;;;10.70;99.90;;;;;;5059454;28;20863;-84
2023/04/02 02:31:29;;;;;;;1.63;1.33;;;10.70;99.90;;;;;;5051705;28;20456;-82
2023/04/02 02:34:20;;;;;;;1.10;1.10;;;10.70;99.90;;;;;;5057322;28;20495;-84
2023/04/02 02:37:12;;;;;;;1.60;1.50;;;10.80;99.90;;;;;;5046627;28;20482;-82
2023/04/02 02:40:03;;;;;;;1.40;1.33;;;10.80;99.90;;;;;;5056001;28;20455;-83
2023/04/02 02:42:50;;;;;;;1.60;1.50;;;10.70;99.90;;;;;;5049357;28;20472;-83
2023/04/02 02:45:24;;;;;;;1.70;1.60;;;10.80;99.90;;;;;;5052917;28;20476;-84
2023/04/02 02:47:59;;;;;;;1.90;1.80;;;10.90;99.90;;;;;;5055741;28;20448;-84
2023/04/02 02:50:34;;;;;;;1.83;1.73;;;10.60;99.90;;;;;;5049198;28;20519;-84
2023/04/02 02:53:31;;;;;;;1.67;1.50;;;10.60;99.90;;;;;;5047096;28;20498;-83
2023/04/02 02:56:12;;;;;;;1.67;1.57;;;10.70;99.90;;;;;;5049775;28;20454;-83
2023/04/02 02:58:56;;;;;;;2.20;2.00;;;10.70;99.90;;;;;;5041606;28;20452;-83
2023/04/02 03:01:36;;;;;;;1.60;1.50;;;10.70;99.90;;;;;;5050572;28;20479;-83
2023/04/02 03:04:34;;;;;;;2.10;2.00;;;10.70;99.90;;;;;;5048307;28;20535;-82
2023/04/02 03:07:20;;;;;;;1.90;1.80;;;10.60;99.90;;;;;;5045937;28;20472;-82
2023/04/02 03:10:12;;;;;;;1.93;1.83;;;10.60;99.90;;;;;;5053593;28;20504;-84
2023/04/02 03:13:21;;;;;;;1.80;1.70;;;10.60;99.90;;;;;;5054831;28;20499;-84
2023/04/02 03:16:17;;;;;;;2.00;1.90;;;10.40;99.90;;;;;;5046267;28;20475;-83
2023/04/02 03:18:54;;;;;;;2.13;2.03;;;10.30;99.90;;;;;;5052782;28;20450;-83
2023/04/02 03:21:47;;;;;;;1.80;1.70;;;10.30;99.90;;;;;;5055088;28;20983;-83
2023/04/02 03:24:48;;;;;;;2.30;2.20;;;10.40;99.90;;;;;;5057364;28;20440;-82
2023/04/02 03:27:43;;;;;;;2.30;2.10;;;10.40;99.90;;;;;;5056631;28;20440;-82
2023/04/02 03:31:02;;;;;;;2.10;2.00;;;10.40;99.90;;;;;;5052784;28;20467;-84
2023/04/02 03:33:50;;;;;;;2.23;2.13;;;10.20;99.90;;;;;;5028126;28;20483;-83
2023/04/02 03:36:34;;;;;;;2.30;2.20;;;10.30;99.90;;;;;;5050148;28;20460;-84
2023/04/02 03:39:41;;;;;;;2.10;2.00;;;10.30;99.90;;;;;;5054764;28;20479;-84
2023/04/02 03:42:38;;;;;;;2.40;2.20;;;10.40;99.90;;;;;;5058444;28;20469;-83
2023/04/02 03:45:42;;;;;;;2.73;2.53;;;10.40;99.90;;;;;;5057012;28;20971;-84
2023/04/02 03:48:23;;;;;;;2.57;2.37;;;10.10;99.90;;;;;;5058180;28;22044;-84
2023/04/02 03:51:19;;;;;;;2.60;2.40;;;10.10;99.90;;;;;;5060564;28;20460;-83
2023/04/02 03:53:52;;;;;;;2.70;2.50;;;10.00;99.90;;;;;;5074797;28;20741;-84
2023/04/02 03:56:40;;;;;;;2.97;2.77;;;10.20;99.90;;;;;;5065672;28;20456;-84
2023/04/02 03:59:35;;;;;;;3.07;2.87;;;10.20;99.90;;;;;;5063505;28;20462;-82
2023/04/02 04:02:46;;;;;;;4.60;3.80;;;10.30;99.90;;;;;;5080176;28;20436;-82
2023/04/02 04:05:30;;;;;;;3.67;3.37;;;10.10;99.90;;;;;;5075334;28;20462;-84
2023/04/02 04:08:07;;;;;;;3.63;3.33;;;10.00;99.90;;;;;;5071676;28;20459;-83
2023/04/02 04:10:44;;;;;;;4.57;4.27;;;10.00;99.90;;;;;;5078677;28;20483;-84
2023/04/02 04:13:21;;;;;;;4.23;3.87;;;10.00;99.90;;;;;;5086896;28;20475;-83
2023/04/02 04:15:59;;;;;;;4.43;4.13;;;10.00;99.90;;;;;;5081580;28;20436;-83
2023/04/02 04:18:55;;;;;;;3.70;3.40;;;10.00;99.90;;;;;;5082585;28;20440;-82
2023/04/02 04:21:36;;;;;;;3.70;3.40;;;9.90;99.90;;;;;;5091059;28;20424;-82
2023/04/02 04:24:38;;;;;;;3.57;3.30;;;9.90;99.90;;;;;;5078917;28;20456;-83
2023/04/02 04:27:36;;;;;;;4.10;3.70;;;9.80;99.90;;;;;;5040757;28;20461;-83
2023/04/02 04:30:33;;;;;;;3.17;2.97;;;9.90;99.90;;;;;;5072386;28;20463;-82
2023/04/02 04:33:14;;;;;;;3.87;3.57;;;10.00;99.90;;;;;;5074257;28;20575;-82
2023/04/02 04:39:13;;;;;;;4.03;3.73;;;9.90;99.90;;;;;;5056193;28;20450;-82
2023/04/02 04:41:56;;;;;;;3.47;3.20;;;9.90;99.90;;;;;;5150194;22;20508;-83
2023/04/02 04:45:10;;;;;;;4.00;3.60;;;9.80;99.90;;;;;;5022267;28;20446;-83
2023/04/02 04:48:09;;;;;;;3.30;3.10;;;9.90;99.90;;;;;;5029986;28;20551;-82
2023/04/02 04:50:54;;;;;;;3.60;3.30;;;9.90;99.90;;;;;;5014065;28;20486;-82
2023/04/02 04:53:50;;;;;;;3.00;2.80;;;9.80;99.90;;;;;;5036305;28;20491;-82
2023/04/02 04:56:30;;;;;;;3.30;3.10;;;9.70;99.90;;;;;;5029667;28;20437;-83
2023/04/02 04:59:42;;;;;;;3.70;3.40;;;9.70;99.90;;;;;;5036880;28;20432;-82
2023/04/02 05:02:39;;;;;;;3.00;2.70;;;9.70;99.90;;;;;;5029861;28;20473;-82
2023/04/02 05:05:31;;;;;;;4.10;3.70;;;9.60;99.90;;;;;;5017288;28;20453;-83
2023/04/02 05:08:19;;;;;;;3.70;3.40;;;9.70;99.90;;;;;;5033880;28;20465;-82
2023/04/02 05:11:04;;;;;;;3.30;3.10;;;9.60;99.90;;;;;;5035737;28;20672;-82
2023/04/02 05:14:15;;;;;;;4.70;3.70;;;9.60;99.90;;;;;;5044488;28;20479;-81
2023/04/02 05:17:27;;;;;;;3.13;2.93;;;9.50;99.90;;;;;;5012695;28;20481;-83
2023/04/02 05:20:20;;;;;;;4.03;3.60;;;9.40;99.90;;;;;;5017260;28;20545;-82
2023/04/02 05:23:14;;;;;;;3.67;3.40;;;9.40;99.90;;;;;;5035403;28;20480;-83
2023/04/02 05:26:24;;;;;;;3.60;3.30;;;9.50;99.90;;;;;;5028955;28;20464;-81
2023/04/02 05:29:46;;;;;;;;;;;;;;;;;;;;;
2023/04/02 05:32:37;;;;;;;3.67;3.37;;;9.40;99.90;;;;;;5026332;28;21078;-84
2023/04/02 05:35:38;;;;;;;4.07;3.77;;;9.40;99.90;;;;;;5020801;28;20480;-84
2023/04/02 05:38:43;;;;;;;3.50;3.30;;;9.40;99.90;;;;;;5015491;28;20438;-84
2023/04/02 05:41:43;;;;;;;4.83;4.07;;;9.40;99.90;;;;;;5019274;28;20485;-82
2023/04/02 05:44:42;;;;;;;3.80;3.50;;;9.20;99.90;;;;;;5026455;28;20897;-84
2023/04/02 05:47:48;;;;;;;3.90;3.60;;;9.30;99.90;;;;;;5026429;28;20457;-84
2023/04/02 05:50:42;;;;;;;;;;;;;;;;;;;;;
2023/04/02 05:53:26;;;;;;;4.27;3.97;;;9.40;99.90;;;;;;5039324;28;20477;-84
2023/04/02 05:56:11;;;;;;;4.00;3.60;;;9.20;99.90;;;;;;5020169;28;20488;-84
2023/04/02 05:58:52;;;;;;;3.97;3.67;;;9.20;99.90;;;;;;5024927;28;20841;-83
2023/04/02 06:01:54;;;;;;;4.33;4.03;;;9.20;99.90;;;;;;5027623;28;20457;-84
2023/04/02 06:05:01;;;;;;;4.40;4.00;;;9.10;99.90;;;;;;5021764;28;20847;-84
2023/04/02 06:08:35;;;;;;;;;;;;;;;;;;;;;
2023/04/02 06:15:28;;;;;;;3.87;3.47;;;9.20;99.90;;;;;;5029171;28;20469;-84
2023/04/02 06:18:39;;;;;;;3.50;3.20;;;9.20;99.90;;;;;;5033928;28;20441;-84
2023/04/02 06:21:19;;;;;;;4.40;4.10;;;9.20;99.90;;;;;;5008838;28;20465;-84
2023/04/02 06:24:17;;;;;;;3.70;3.40;;;9.20;99.90;;;;;;5035011;28;20474;-84
2023/04/02 06:27:11;;;;;;;7.27;5.90;;;9.20;99.90;;;;;;5039547;28;20457;-82
2023/04/02 06:30:20;;;;;;;4.27;3.87;;;9.20;99.90;;;;;;5030522;28;20532;-82
2023/04/02 06:33:18;;;;;;;3.97;3.60;;;9.30;99.90;;;;;;5027468;28;20826;-82
2023/04/02 06:36:15;;;;;;;4.50;4.07;;;9.30;99.90;;;;;;5048471;28;20482;-82
2023/04/02 06:39:07;;;;;;;4.50;4.10;;;9.40;99.90;;;;;;5020327;28;20441;-83
2023/04/02 06:42:06;;;;;;;5.70;4.70;;;9.30;99.90;;;;;;5034280;28;20476;-84
2023/04/02 06:45:32;;;;;;;;;;;;;;;;;;;;;
2023/04/02 06:48:30;;;;;;;3.80;3.50;;;9.10;99.90;;;;;;5023581;28;20468;-82
2023/04/02 06:51:15;;;;;;;4.30;3.90;;;9.10;99.90;;;;;;5033480;28;20485;-81
2023/04/02 06:54:23;;;;;;;4.00;3.70;;;9.00;99.90;;;;;;5020341;28;20480;-83
2023/04/02 06:57:15;;;;;;;4.47;4.07;;;9.20;99.90;;;;;;5029166;28;20587;-83
2023/04/02 07:00:46;;;;;;;4.80;4.40;;;9.20;99.90;;;;;;5026887;28;20425;-81
2023/04/02 07:03:53;;;;;;;5.57;4.57;;;9.20;99.90;;;;;;5034413;28;20476;-81
2023/04/02 07:09:38;;;;;;;6.23;4.90;;;9.20;99.90;;;;;;1189176;26;20491;-82
2023/04/02 07:12:34;;;;;;;5.53;5.07;;;9.20;99.90;;;;;;5060579;28;20456;-82
2023/04/02 07:15:45;;;;;;;7.37;5.40;;;9.10;99.90;;;;;;5066288;28;20537;-85
2023/04/02 07:19:07;;;;;;;5.37;4.73;;;9.10;99.90;;;;;;5051282;28;20803;-83
2023/04/02 07:22:00;;;;;;;5.10;4.60;;;9.00;99.90;;;;;;5067723;28;20448;-83
2023/04/02 07:25:03;;;;;;;6.20;4.80;;;8.90;99.90;;;;;;5081527;28;20461;-84
2023/04/02 07:28:24;;;;;;;6.87;5.83;;;8.90;99.90;;;;;;5064137;28;20452;-84
2023/04/02 07:31:53;;;;;;;5.07;4.57;;;9.00;99.90;;;;;;5055462;28;20538;-83
2023/04/02 07:35:25;;;;;;;5.03;4.53;;;8.80;99.90;;;;;;5028051;28;20497;-84
2023/04/02 07:38:48;;;;;;;5.97;5.37;;;8.80;99.90;;;;;;5021711;28;20504;-82
2023/04/02 07:41:50;;;;;;;6.47;5.00;;;8.80;99.90;;;;;;5025752;28;20449;-83
2023/04/02 07:44:38;;;;;;;;;;;;;;;;;;;;;
2023/04/02 07:47:45;;;;;;;5.07;4.57;;;8.80;99.90;;;;;;5027828;28;20453;-83
2023/04/02 07:50:52;;;;;;;5.13;4.47;;;8.80;99.90;;;;;;4982257;28;20914;-82
2023/04/02 07:54:03;;;;;;;4.43;4.03;;;8.80;99.90;;;;;;5016396;28;20481;-84
2023/04/02 08:00:53;;;;;;;5.07;4.67;;;8.90;99.90;;;;;;4947889;29;20428;-82
2023/04/02 08:03:49;;;;;;;5.97;4.80;;;8.80;99.90;;;;;;4945195;28;20459;-81
2023/04/02 08:07:00;;;;;;;7.00;5.43;;;9.00;99.90;;;;;;4942710;29;20452;-83
2023/04/02 08:09:40;;;;;;;5.00;4.50;;;9.10;99.90;;;;;;4954113;28;20483;-84
2023/04/02 08:12:43;;;;;;;5.97;5.40;;;9.10;99.90;;;;;;4988578;28;20472;-84
2023/04/02 08:15:43;;;;;;;6.70;5.07;;;9.00;99.90;;;;;;4976873;28;20481;-84
2023/04/02 08:18:53;;;;;;;;;;;;;;;;;;;;;
2023/04/02 08:21:49;;;;;;;5.33;4.40;;;9.10;99.90;;;;;;5013704;28;20470;-84
2023/04/02 08:24:33;;;;;;;4.87;4.37;;;9.10;99.90;;;;;;5000467;28;20469;-82
2023/04/02 08:27:50;;;;;;;9.50;5.00;;;9.10;99.90;;;;;;4993482;28;20589;-81
2023/04/02 08:30:59;;;;;;;5.30;4.70;;;9.10;99.90;;;;;;4996239;28;20525;-80
2023/04/02 08:34:08;;;;;;;;;;;;;;;;;;;;;
2023/04/02 08:37:22;;;;;;;6.80;5.47;;;9.10;99.90;;;;;;4944967;28;20436;-83
2023/04/02 08:40:40;;;;;;;6.07;4.90;;;9.20;99.90;;;;;;4997734;28;20447;-82
2023/04/02 08:43:44;;;;;;;7.00;5.73;;;9.10;99.90;;;;;;4980679;28;20510;-82
2023/04/02 08:50:24;;;;;;;5.83;5.20;;;9.00;99.90;;;;;;5016481;28;20437;-84
2023/04/02 08:53:21;;;;;;;8.30;6.43;;;9.00;99.90;;;;;;4962300;28;20522;-85
2023/04/02 08:56:31;;;;;;;6.77;5.50;;;8.90;99.90;;;;;;4976063;28;20527;-82
2023/04/02 08:59:39;;;;;;;7.03;5.27;;;8.90;99.90;;;;;;5004270;28;20448;-83
2023/04/02 09:03:15;;;;;;;7.20;6.40;;;9.10;99.90;;;;;;5095839;28;20468;-83
2023/04/02 09:06:23;;;;;;;5.97;5.40;;;9.00;99.90;;;;;;5040119;28;20549;-84
2023/04/02 09:09:59;;;;;;;9.30;6.87;;;9.10;99.90;;;;;;5049023;28;20443;-82
2023/04/02 09:12:35;;;;;;;7.90;5.63;;;9.20;99.90;;;;;;5081455;28;20505;-83
2023/04/02 09:18:30;;;;;;;6.70;5.37;;;8.90;99.90;;;;;;5056050;28;20501;-83
2023/04/02 09:21:48;;;;;;;5.90;5.40;;;9.10;99.90;;;;;;5074617;28;20501;-82
2023/04/02 09:28:04;;;;;;;6.83;6.13;;;9.10;99.90;;;;;;5064027;28;20439;-83
2023/04/02 09:30:54;;;;;;;6.60;5.30;;;9.20;99.90;;;;;;5065037;28;20447;-82
2023/04/02 09:33:53;;;;;;;5.90;4.93;;;9.10;99.90;;;;;;5072634;28;20464;-83
2023/04/02 09:36:46;;;;;;;6.10;5.27;;;9.10;99.90;;;;;;5063278;28;20466;-83
2023/04/02 09:39:30;;;;;;;5.70;5.20;;;9.30;99.90;;;;;;5065225;28;20463;-83
2023/04/02 09:42:25;;;;;;;6.23;5.10;;;9.40;99.90;;;;;;5080385;28;20448;-82
2023/04/02 09:45:35;;;;;;;5.70;5.17;;;9.40;99.70;;;;;;5066180;28;20496;-84
2023/04/02 09:48:39;;;;;;;4.83;4.40;;;9.30;99.80;;;;;;5073782;28;20453;-82
2023/04/02 09:51:37;;;;;;;4.50;4.10;;;9.40;99.70;;;;;;5070769;28;20837;-84
2023/04/02 09:54:25;;;;;;;6.70;5.40;;;9.30;99.20;;;;;;5072221;28;20471;-84
2023/04/02 09:57:05;;;;;;;5.60;4.73;;;9.20;99.60;;;;;;5067402;28;20872;-82
2023/04/02 09:59:47;;;;;;;5.63;4.70;;;9.20;99.90;;;;;;5069836;28;20512;-84
2023/04/02 10:02:31;;;;;;;6.00;4.80;;;9.10;99.90;;;;;;5072970;28;20468;-82
2023/04/02 10:05:26;;;;;;;6.30;5.47;;;9.30;99.90;;;;;;5063852;28;21217;-84
2023/04/02 10:08:41;;;;;;;8.33;6.07;;;9.20;99.50;;;;;;5071116;28;20440;-83
2023/04/02 10:11:24;;;;;;;7.13;5.50;;;9.30;99.90;;;;;;5059610;28;20466;-83
2023/04/02 10:14:23;;;;;;;8.40;7.20;;;9.50;99.90;;;;;;5067176;28;21011;-84
2023/04/02 10:17:18;;;;;;;7.30;5.47;;;9.50;99.60;;;;;;5073289;28;20519;-84
2023/04/02 10:20:16;;;;;;;10.60;6.80;;;9.50;99.40;;;;;;5069409;28;20470;-83
2023/04/02 10:22:58;;;;;;;7.33;6.13;;;9.60;98.60;;;;;;5069289;28;20560;-83
2023/04/02 10:25:40;;;;;;;6.83;5.80;;;9.70;98.10;;;;;;5062268;28;20922;-83
2023/04/02 10:28:37;;;;;;;7.70;5.60;;;9.50;98.40;;;;;;5069822;28;20480;-83
2023/04/02 10:31:39;;;;;;;4.77;4.37;;;9.50;98.90;;;;;;5075742;28;20454;-84
2023/04/02 10:34:35;;;;;;;6.13;5.53;;;9.60;98.80;;;;;;5072317;28;20427;-84
2023/04/02 10:37:36;;;;;;;6.57;5.83;;;9.60;98.70;;;;;;5067462;28;20453;-83
2023/04/02 10:40:45;;;;;;;6.50;5.50;;;9.70;98.30;;;;;;5069793;28;20463;-84
2023/04/02 10:44:01;;;;;;;6.57;5.43;;;9.70;98.90;;;;;;5069811;28;20453;-84
2023/04/02 10:47:15;;;;;;;7.57;5.73;;;9.60;99.20;;;;;;5071308;28;20455;-84
2023/04/02 10:50:18;;;;;;;5.33;4.83;;;9.90;98.50;;;;;;5081452;28;20455;-84
2023/04/02 11:00:35;;;;;;;6.40;5.80;;;10.20;96.90;;;;;;5055142;28;21116;-84
2023/04/02 11:03:33;;;;;;;5.80;5.30;;;10.10;96.90;;;;;;5055512;28;21135;-84
2023/04/02 11:06:49;;;;;;;6.10;5.50;;;10.30;96.60;;;;;;5061252;28;20486;-83
2023/04/02 11:10:08;;;;;;;6.87;5.27;;;10.20;96.80;;;;;;5070936;28;20463;-84
2023/04/02 11:13:19;;;;;;;6.93;5.20;;;10.60;95.90;;;;;;5071679;28;20459;-84
2023/04/02 11:19:22;;;;;;;6.30;4.53;;;10.60;95.60;;;;;;5055972;28;20444;-84
2023/04/02 11:22:30;;;;;;;4.70;4.30;;;10.70;94.90;;;;;;5069826;28;20424;-83
2023/04/02 11:26:11;;;;;;;;;;;;;;;;;;;;;
2023/04/02 11:32:55;;;;;;;4.47;4.07;;;10.10;95.80;;;;;;5053808;28;20438;-83
2023/04/02 11:35:45;;;;;;;4.80;4.27;;;10.40;96.00;;;;;;5077947;28;20513;-83
2023/04/02 11:38:45;;;;;;;5.27;4.60;;;10.30;95.80;;;;;;5013315;28;20471;-82
2023/04/02 11:47:51;;;;;;;5.40;4.30;;;10.40;94.90;;;;;;5023777;28;20456;-84
2023/04/02 11:50:50;;;;;;;5.50;5.00;;;10.50;94.90;;;;;;5053116;28;20445;-83
2023/04/02 11:53:34;;;;;;;5.10;4.70;;;10.30;95.10;;;;;;5057310;28;20555;-81
2023/04/02 12:00:15;;;;;;;6.63;5.93;;;10.20;95.20;;;;;;5043204;28;20458;-84
2023/04/02 12:03:37;;;;;;;5.40;5.00;;;10.00;95.60;;;;;;5048121;28;20496;-84
2023/04/02 12:09:53;;;;;;;7.87;5.87;;;10.30;95.20;;;;;;4977421;28;20461;-83
2023/04/02 12:13:05;;;;;;;5.93;5.40;;;10.40;94.90;;;;;;5042753;28;20484;-83
2023/04/02 12:16:05;;;;;;;5.53;5.03;;;10.40;95.00;;;;;;5037159;28;20463;-84
2023/04/02 12:18:56;;;;;;;8.00;5.40;;;10.40;95.00;;;;;;5046684;28;20452;-82
2023/04/02 12:21:46;;;;;;;;;;;;;;;;;;;;;
2023/04/02 12:24:36;;;;;;;5.13;4.63;;;10.40;95.40;;;;;;5039048;28;20432;-84
2023/04/02 12:27:26;;;;;;;5.23;4.73;;;10.60;94.60;;;;;;5058026;28;20448;-83
2023/04/02 12:30:46;;;;;;;5.57;4.43;;;10.50;94.50;;;;;;5031970;28;20598;-83
2023/04/02 12:34:09;;;;;;;5.40;4.90;;;10.60;94.40;;;;;;5041046;28;20484;-84
2023/04/02 12:36:55;;;;;;;5.53;5.07;;;10.50;94.60;;;;;;4980788;28;20593;-83
2023/04/02 12:39:32;;;;;;;5.67;4.77;;;10.60;94.90;;;;;;4996581;28;20563;-84
2023/04/02 12:42:35;;;;;;;5.07;4.57;;;10.80;94.50;;;;;;5042340;28;20441;-84
2023/04/02 12:45:29;;;;;;;5.33;4.90;;;10.70;94.40;;;;;;5051721;28;20455;-84
2023/04/02 12:48:15;;;;;;;5.10;4.60;;;10.70;94.00;;;;;;5041269;28;20449;-84
2023/04/02 12:51:02;;;;;;;6.20;5.60;;;10.50;94.30;;;;;;5045307;28;20456;-82
2023/04/02 12:53:50;;;;;;;6.37;5.77;;;10.60;94.20;;;;;;5045176;28;20456;-83
2023/04/02 12:56:22;;;;;;;6.43;4.90;;;10.50;94.40;;;;;;5050968;28;20495;-83
2023/04/02 12:59:01;;;;;;;8.83;4.93;;;10.50;94.30;;;;;;5051063;28;20477;-84
2023/04/02 13:01:37;;;;;;;7.80;5.60;;;10.50;94.00;;;;;;5050798;28;20444;-84
2023/04/02 13:04:20;;;;;;;5.87;5.33;;;10.40;94.60;;;;;;5041925;28;20468;-82
2023/04/02 13:07:04;;;;;;;6.10;5.00;;;10.20;94.50;;;;;;5038094;28;20444;-83
2023/04/02 13:10:01;;;;;;;5.93;5.40;;;10.30;94.70;;;;;;5048218;28;20989;-84
2023/04/02 13:12:41;;;;;;;5.23;4.73;;;10.20;94.80;;;;;;5041317;28;20472;-84
2023/04/02 13:15:45;;;;;;;6.47;5.10;;;10.30;94.70;;;;;;5027158;28;20429;-84
2023/04/02 13:18:27;;;;;;;5.27;4.70;;;10.40;94.30;;;;;;5046890;28;20472;-83
2023/04/02 13:21:37;;;;;;;4.90;4.37;;;10.50;94.50;;;;;;5046842;28;20450;-84
2023/04/02 13:24:27;;;;;;;4.77;4.37;;;10.50;93.90;;;;;;5060558;28;20540;-82
2023/04/02 13:27:17;;;;;;;4.60;4.13;;;10.60;94.00;;;;;;5060386;28;20492;-84
2023/04/02 13:30:11;;;;;;;4.77;4.37;;;10.30;94.10;;;;;;5073351;28;20441;-83
2023/04/02 13:33:19;;;;;;;4.77;4.37;;;10.50;93.90;;;;;;5059653;28;20508;-84
2023/04/02 13:38:55;;;;;;;6.03;4.57;;;10.60;93.70;;;;;;5045244;28;20510;-82
2023/04/02 13:41:37;;;;;;;4.47;3.90;;;10.60;93.50;;;;;;5050183;28;20503;-82
2023/04/02 13:44:20;;;;;;;4.00;3.70;;;10.50;93.10;;;;;;5047322;28;20465;-83
2023/04/02 13:46:59;;;;;;;4.20;3.47;;;10.50;93.70;;;;;;5050831;28;20479;-83
2023/04/02 13:50:01;;;;;;;5.30;4.60;;;10.70;93.60;;;;;;5049513;28;20477;-82
2023/04/02 13:52:42;;;;;;;5.23;4.17;;;10.70;93.50;;;;;;5058645;28;20500;-82
2023/04/02 13:55:21;;;;;;;4.70;4.30;;;10.70;93.20;;;;;;5053352;28;20433;-84
2023/04/02 13:58:35;;;;;;;4.90;4.37;;;10.80;93.00;;;;;;5046606;28;20488;-83
2023/04/02 14:01:14;;;;;;;4.53;4.00;;;10.60;92.50;;;;;;5053437;28;20540;-82
2023/04/02 14:03:57;;;;;;;7.00;4.83;;;10.50;93.00;;;;;;5069901;28;20494;-84
2023/04/02 14:07:09;;;;;;;7.97;4.00;;;10.60;93.50;;;;;;5050787;28;20433;-83
2023/04/02 14:10:23;;;;;;;4.70;4.30;;;10.60;93.30;;;;;;5064604;28;20496;-82
2023/04/02 14:13:25;;;;;;;4.60;4.10;;;10.70;92.90;;;;;;5065544;28;20481;-82
2023/04/02 14:16:30;;;;;;;4.40;4.00;;;10.70;92.70;;;;;;5058356;28;20473;-82
2023/04/02 14:19:39;;;;;;;4.03;3.63;;;10.70;92.50;;;;;;5071576;28;20444;-82
2023/04/02 14:26:23;;;;;;;3.70;3.40;;;10.50;92.50;;;;;;5061677;28;20424;-82
2023/04/02 14:29:32;;;;;;;3.37;3.17;;;10.40;92.60;;;;;;5060904;28;20452;-83
2023/04/02 14:36:42;;;;;;;5.60;3.40;;;10.50;92.30;;;;;;4972566;28;20916;-82
2023/04/02 14:39:56;;;;;;;3.13;2.93;;;10.40;92.70;;;;;;4978319;28;20531;-83
2023/04/02 14:46:29;;;;;;;3.33;2.97;;;10.50;92.50;;;;;;4899058;29;20540;-84
2023/04/02 14:49:32;;;;;;;3.30;2.97;;;10.40;92.00;;;;;;4914243;28;20512;-84
2023/04/02 14:52:32;;;;;;;10.53;8.90;;;10.30;92.40;;;;;;4960887;28;20622;-84
2023/04/02 14:56:03;;;;;;;3.00;2.80;;;10.30;92.30;;;;;;4984214;28;20508;-85
2023/04/02 14:58:40;;;;;;;2.70;2.50;;;10.20;91.60;;;;;;4866852;29;20455;-82
2023/04/02 15:01:41;;;;;;;3.27;2.90;;;10.20;91.50;;;;;;4976942;28;20487;-81
2023/04/02 15:04:21;;;;;;;3.30;3.03;;;10.40;91.30;;;;;;5022354;28;20467;-83
2023/04/02 15:07:25;;;;;;;5.00;3.27;;;10.20;91.50;;;;;;5047376;28;20449;-84
2023/04/02 15:10:17;;;;;;;2.37;2.27;;;10.30;91.50;;;;;;5036110;28;20449;-84
2023/04/02 15:15:55;;;;;;;2.90;2.70;;;10.20;91.00;;;;;;5062067;22;20492;-83
2023/04/02 15:18:35;;;;;;;3.63;3.40;;;10.00;91.10;;;;;;5055457;28;20447;-83
2023/04/02 15:24:37;;;;;;;;;;;;;;;;;;;;;
2023/04/02 15:28:13;;;;;;;4.03;3.20;;;9.90;91.50;;;;;;4999854;28;20488;-83
2023/04/02 15:30:53;;;;;;;4.73;4.33;;;10.00;91.10;;;;;;5027887;28;20495;-84
2023/04/02 15:33:56;;;;;;;3.70;3.50;;;10.00;91.20;;;;;;5036395;28;20916;-83
2023/04/02 15:36:45;;;;;;;4.37;3.83;;;10.10;90.70;;;;;;5064943;22;20484;-83
2023/04/02 15:40:00;;;;;;;3.67;3.47;;;10.10;90.70;;;;;;5068752;28;20528;-83
2023/04/02 15:42:47;;;;;;;3.70;3.40;;;10.00;90.30;;;;;;5076591;28;20491;-82
2023/04/02 15:49:40;;;;;;;4.00;3.80;;;9.80;90.50;;;;;;5027731;28;20464;-82
2023/04/02 15:52:54;;;;;;;5.87;4.60;;;9.80;91.10;;;;;;5042182;28;20481;-85
2023/04/02 15:56:02;;;;;;;17.13;7.53;;;10.00;90.10;;;;;;5051106;28;20448;-82
2023/04/02 15:59:54;;;;;;;8.73;4.70;;;10.10;89.70;;;;;;5046238;28;20445;-83
2023/04/02 16:03:19;;;;;;;4.70;3.87;;;10.10;89.20;;;;;;5046223;28;20470;-83
2023/04/02 16:06:37;;;;;;;;;;;;;;;;;;;;;
2023/04/02 16:09:53;;;;;;;3.80;3.50;;;10.00;89.00;;;;;;5048486;28;20479;-82
2023/04/02 16:13:05;;;;;;;4.10;3.70;;;9.90;90.20;;;;;;5036508;28;20500;-81
2023/04/02 16:16:27;;;;;;;4.27;3.87;;;10.00;88.20;;;;;;5045922;28;20471;-81
2023/04/02 16:19:37;;;;;;;3.97;3.67;;;10.00;88.30;;;;;;5048481;28;20472;-82
2023/04/02 16:22:38;;;;;;;3.80;3.50;;;9.90;90.00;;;;;;5040404;28;20462;-82
2023/04/02 16:25:37;;;;;;;3.83;3.50;;;9.80;89.90;;;;;;5054440;28;20449;-82
2023/04/02 16:28:41;;;;;;;4.10;3.70;;;9.80;89.60;;;;;;5046420;28;20430;-82
2023/04/02 16:39:23;;;;;;;3.40;3.13;;;9.60;88.80;;;;;;5023382;28;20514;-82
2023/04/02 16:42:42;;;;;;;6.17;3.80;;;9.50;88.40;;;;;;5054934;28;20481;-81
2023/04/02 16:45:50;;;;;;;3.50;3.20;;;9.60;88.50;;;;;;5022588;28;20431;-83
2023/04/02 16:52:48;;;;;;;6.33;2.67;;;9.70;87.90;;;;;;5046060;28;20568;-83
2023/04/02 16:56:15;;;;;;;4.43;3.20;;;9.80;86.10;;;;;;5063782;28;20448;-84
2023/04/02 16:59:29;;;;;;;3.40;2.40;;;9.70;86.90;;;;;;5065195;28;20482;-83
2023/04/02 17:02:44;;;;;;;3.87;3.17;;;9.70;86.80;;;;;;5065350;28;20478;-82
2023/04/02 17:06:11;;;;;;;2.60;2.07;;;9.80;86.10;;;;;;5054877;28;20440;-82
2023/04/02 17:09:13;;;;;;;2.73;2.53;;;9.70;85.70;;;;;;5009685;28;20436;-81